Time;durP1;ratioP1;P1;durP2;ratioP2;P2;SDS_P1;SDS_P2;PMS_P1;PMS_P2;Temp;Humidity;BMP_temperature;BMP_pressure;BME280_temperature;BME280_humidity;BME280_pressure;Samples;Min_cycle;Max_cycle;Signal;HPM_P1;HPM_P2
2023/11/30 00:00:14;;;;;;;40.47;5.90;;;0.10;99.90;;;;;;5012903;28;20083;-74
2023/11/30 00:02:41;;;;;;;30.23;5.45;;;0.10;99.90;;;;;;5006446;28;20045;-73
2023/11/30 00:05:08;;;;;;;42.67;6.05;;;0.10;99.90;;;;;;4993949;28;20045;-74
2023/11/30 00:07:34;;;;;;;30.88;4.95;;;0.10;99.90;;;;;;5006710;28;20095;-73
2023/11/30 00:10:01;;;;;;;17.27;4.78;;;0.10;99.90;;;;;;5012418;28;20054;-74
2023/11/30 00:12:26;;;;;;;42.80;5.60;;;0.30;99.90;;;;;;5018348;28;20041;-73
2023/11/30 00:14:52;;;;;;;74.28;7.47;;;0.10;99.90;;;;;;5020126;28;20072;-73
2023/11/30 00:17:18;;;;;;;29.80;5.53;;;0.00;99.90;;;;;;5004168;28;20069;-73
2023/11/30 00:19:44;;;;;;;13.57;4.30;;;0.10;99.90;;;;;;5005533;28;20415;-73
2023/11/30 00:22:09;;;;;;;18.88;5.45;;;0.10;99.90;;;;;;5003314;28;20041;-73
2023/11/30 00:24:35;;;;;;;12.30;4.80;;;0.30;99.90;;;;;;5011884;28;20444;-72
2023/11/30 00:27:01;;;;;;;49.72;6.38;;;0.10;99.90;;;;;;5002653;28;20065;-74
2023/11/30 00:29:26;;;;;;;67.40;7.53;;;0.10;99.90;;;;;;5011483;28;20043;-74
2023/11/30 00:31:54;;;;;;;7.70;3.88;;;0.10;99.90;;;;;;5008335;28;20077;-73
2023/11/30 00:34:19;;;;;;;43.80;5.80;;;0.00;99.90;;;;;;5006863;28;20049;-74
2023/11/30 00:36:45;;;;;;;18.73;5.07;;;-0.10;99.90;;;;;;5026611;28;20025;-74
2023/11/30 00:39:10;;;;;;;8.35;4.18;;;0.00;99.90;;;;;;5004284;28;20148;-74
2023/11/30 00:41:36;;;;;;;32.63;4.90;;;-0.10;99.90;;;;;;5003086;28;20048;-74
2023/11/30 00:44:02;;;;;;;41.78;5.53;;;-0.10;99.90;;;;;;5026620;28;20116;-74
2023/11/30 00:46:27;;;;;;;25.80;5.05;;;-0.20;99.90;;;;;;5014704;28;20503;-72
2023/11/30 00:48:53;;;;;;;19.73;4.68;;;-0.20;99.90;;;;;;5006377;28;20045;-74
2023/11/30 00:51:19;;;;;;;17.45;5.80;;;-0.30;99.90;;;;;;5023722;28;20038;-73
2023/11/30 00:53:44;;;;;;;28.08;4.80;;;-0.30;99.90;;;;;;4986822;28;20511;-73
2023/11/30 00:56:11;;;;;;;44.13;5.15;;;-0.20;99.90;;;;;;5005220;28;20132;-73
2023/11/30 00:58:37;;;;;;;40.38;6.15;;;-0.20;99.90;;;;;;5007210;28;20037;-73
2023/11/30 01:01:03;;;;;;;38.88;4.63;;;-0.20;99.90;;;;;;5011607;28;20038;-73
2023/11/30 01:03:29;;;;;;;38.55;5.32;;;-0.30;99.90;;;;;;5018741;28;20045;-75
2023/11/30 01:05:55;;;;;;;29.05;5.93;;;-0.30;99.90;;;;;;5003931;28;20052;-74
2023/11/30 01:08:21;;;;;;;15.00;4.20;;;-0.30;99.90;;;;;;5009747;28;20603;-73
2023/11/30 01:10:46;;;;;;;27.65;5.13;;;-0.30;99.90;;;;;;5008178;28;20056;-73
2023/11/30 01:13:12;;;;;;;22.10;5.18;;;-0.20;99.90;;;;;;4901326;28;21033;-75
2023/11/30 01:15:38;;;;;;;12.20;4.68;;;-0.30;99.90;;;;;;4890913;28;20296;-74
2023/11/30 01:18:04;;;;;;;32.08;4.88;;;-0.30;99.90;;;;;;5006060;28;20143;-74
2023/11/30 01:20:31;;;;;;;16.30;4.35;;;-0.40;99.90;;;;;;5003576;28;20049;-74
2023/11/30 01:22:57;;;;;;;22.48;4.55;;;-0.40;99.90;;;;;;5010674;28;20128;-74
2023/11/30 01:25:23;;;;;;;9.43;4.90;;;-0.40;99.90;;;;;;5006447;28;20449;-74
2023/11/30 01:27:50;;;;;;;8.80;4.45;;;-0.40;99.90;;;;;;4990658;28;20042;-74
2023/11/30 01:30:16;;;;;;;30.98;5.07;;;-0.30;99.90;;;;;;5007948;28;20056;-74
2023/11/30 01:32:42;;;;;;;34.38;5.45;;;-0.30;99.90;;;;;;5025347;28;20034;-74
2023/11/30 01:35:08;;;;;;;8.98;4.90;;;-0.40;99.90;;;;;;5006503;28;20041;-74
2023/11/30 01:37:34;;;;;;;29.90;7.13;;;-0.40;99.90;;;;;;5008221;28;20057;-74
2023/11/30 01:40:00;;;;;;;13.95;5.75;;;-0.40;99.90;;;;;;5007750;28;20408;-75
2023/11/30 01:42:25;;;;;;;20.20;5.22;;;-0.40;99.90;;;;;;5012984;28;20037;-75
2023/11/30 01:44:51;;;;;;;88.50;8.80;;;-0.40;99.90;;;;;;5005399;28;20049;-74
2023/11/30 01:47:17;;;;;;;63.83;6.40;;;-0.50;99.90;;;;;;4985801;28;20119;-74
2023/11/30 01:49:43;;;;;;;30.27;6.95;;;-0.60;99.90;;;;;;5011001;28;20052;-75
2023/11/30 01:52:09;;;;;;;29.95;5.10;;;-0.50;99.90;;;;;;5003152;28;20030;-74
2023/11/30 01:54:35;;;;;;;64.93;7.05;;;-0.40;99.90;;;;;;5013804;28;20037;-74
2023/11/30 01:57:03;;;;;;;40.88;4.45;;;-0.40;99.90;;;;;;5014713;28;20047;-75
2023/11/30 01:59:29;;;;;;;68.32;6.32;;;-0.40;99.90;;;;;;5022950;28;20167;-75
2023/11/30 02:01:55;;;;;;;16.55;4.40;;;-0.30;99.90;;;;;;5003736;28;20037;-74
2023/11/30 02:04:21;;;;;;;60.95;5.68;;;-0.30;99.90;;;;;;5012385;28;20459;-74
2023/11/30 02:06:47;;;;;;;32.83;4.68;;;-0.40;99.90;;;;;;4989346;28;20400;-74
2023/11/30 02:09:13;;;;;;;20.30;3.95;;;-0.50;99.90;;;;;;5007016;28;20034;-75
2023/11/30 02:11:40;;;;;;;28.77;4.53;;;-0.50;99.90;;;;;;4998148;28;20057;-74
2023/11/30 02:14:06;;;;;;;37.20;4.70;;;-0.50;99.90;;;;;;5006228;28;20080;-74
2023/11/30 02:16:31;;;;;;;15.48;4.25;;;-0.50;99.90;;;;;;4995432;28;20152;-74
2023/11/30 02:18:57;;;;;;;53.85;5.78;;;-0.50;99.90;;;;;;5007785;28;20152;-74
2023/11/30 02:21:24;;;;;;;19.02;4.78;;;-0.50;99.90;;;;;;5006256;28;20067;-74
2023/11/30 02:23:50;;;;;;;41.30;4.78;;;-0.60;99.90;;;;;;5008975;28;20072;-74
2023/11/30 02:26:17;;;;;;;15.93;3.85;;;-0.70;99.90;;;;;;5009053;28;20037;-74
2023/11/30 02:28:43;;;;;;;36.80;5.75;;;-0.60;99.90;;;;;;5002744;28;20516;-74
2023/11/30 02:31:09;;;;;;;47.25;5.05;;;-0.70;99.90;;;;;;5006778;28;20084;-74
2023/11/30 02:33:34;;;;;;;30.63;4.75;;;-0.60;99.90;;;;;;5003848;28;20061;-75
2023/11/30 02:36:00;;;;;;;42.13;4.80;;;-0.70;99.90;;;;;;5024924;28;20457;-74
2023/11/30 02:38:26;;;;;;;8.98;3.78;;;-0.80;99.90;;;;;;5001781;28;20034;-75
2023/11/30 02:40:52;;;;;;;22.70;4.28;;;-0.60;99.90;;;;;;5007100;28;20083;-74
2023/11/30 02:43:17;;;;;;;64.68;4.90;;;-0.80;99.90;;;;;;5007989;28;20098;-74
2023/11/30 02:45:43;;;;;;;39.30;4.60;;;-0.90;99.90;;;;;;5015286;28;20400;-74
2023/11/30 02:48:09;;;;;;;27.13;3.83;;;-0.90;99.90;;;;;;5025794;28;20519;-74
2023/11/30 02:50:34;;;;;;;9.98;3.00;;;-0.90;99.90;;;;;;4999248;28;20038;-75
2023/11/30 02:53:00;;;;;;;79.93;6.30;;;-0.80;99.90;;;;;;5007216;28;20033;-74
2023/11/30 02:55:28;;;;;;;29.88;3.65;;;-0.90;99.90;;;;;;5002001;28;20041;-73
2023/11/30 02:57:56;;;;;;;21.13;3.83;;;-1.00;99.90;;;;;;5018199;28;20037;-74
2023/11/30 03:00:22;;;;;;;13.65;3.15;;;-0.90;99.90;;;;;;5009054;28;20071;-75
2023/11/30 03:02:47;;;;;;;52.30;4.20;;;-0.80;99.90;;;;;;4984493;28;20099;-75
2023/11/30 03:05:13;;;;;;;15.75;3.97;;;-0.90;99.90;;;;;;5026225;28;20440;-75
2023/11/30 03:07:39;;;;;;;20.67;3.40;;;-1.00;99.90;;;;;;5003015;28;20037;-75
2023/11/30 03:10:05;;;;;;;30.92;4.30;;;-1.10;99.90;;;;;;5005468;28;20123;-73
2023/11/30 03:12:31;;;;;;;13.30;4.55;;;-1.10;99.90;;;;;;5006329;28;20133;-75
2023/11/30 03:14:58;;;;;;;13.32;3.95;;;-1.20;99.90;;;;;;5004831;28;20498;-74
2023/11/30 03:17:23;;;;;;;37.83;4.88;;;-1.00;99.90;;;;;;4991623;28;20042;-74
2023/11/30 03:19:49;;;;;;;44.20;4.55;;;-1.10;99.90;;;;;;5024124;28;20092;-74
2023/11/30 03:22:15;;;;;;;13.48;3.40;;;-1.10;99.90;;;;;;5005184;28;20044;-74
2023/11/30 03:24:40;;;;;;;30.60;4.88;;;-1.20;99.90;;;;;;5011985;28;20056;-74
2023/11/30 03:27:11;;;;;;;23.60;4.28;;;-1.10;99.90;;;;;;5006258;28;20053;-74
2023/11/30 03:29:37;;;;;;;63.67;4.60;;;-1.10;99.90;;;;;;5023498;28;20084;-74
2023/11/30 03:32:03;;;;;;;56.33;4.72;;;-1.20;99.90;;;;;;4987997;28;20073;-74
2023/11/30 03:34:28;;;;;;;58.55;4.43;;;-1.10;99.90;;;;;;5005718;28;20046;-75
2023/11/30 03:36:54;;;;;;;27.95;3.63;;;-1.20;99.90;;;;;;4998666;28;20129;-75
2023/11/30 03:39:20;;;;;;;12.05;3.67;;;-1.00;99.90;;;;;;5018787;28;20041;-74
2023/11/30 03:41:45;;;;;;;42.13;4.63;;;-1.00;99.90;;;;;;5008956;28;20052;-74
2023/11/30 03:44:11;;;;;;;10.77;3.40;;;-1.10;99.90;;;;;;5014672;28;20064;-73
2023/11/30 03:46:37;;;;;;;14.10;3.50;;;-1.10;99.90;;;;;;4997002;28;20037;-74
2023/11/30 03:49:03;;;;;;;26.00;3.72;;;-1.00;99.90;;;;;;5003649;28;20037;-74
2023/11/30 03:51:28;;;;;;;8.23;3.42;;;-1.10;99.90;;;;;;5017449;28;20566;-74
2023/11/30 03:53:54;;;;;;;19.60;3.63;;;-1.20;99.90;;;;;;5004290;28;20037;-74
2023/11/30 03:56:20;;;;;;;14.60;3.53;;;-1.20;99.90;;;;;;5003478;28;20404;-74
2023/11/30 03:58:46;;;;;;;16.20;3.75;;;-1.20;99.90;;;;;;5028213;28;20095;-76
2023/11/30 04:01:11;;;;;;;48.25;5.32;;;-1.10;99.90;;;;;;5011288;28;20095;-75
2023/11/30 04:03:37;;;;;;;25.55;3.63;;;-1.30;99.90;;;;;;5018289;28;20446;-74
2023/11/30 04:06:03;;;;;;;29.38;4.25;;;-1.30;99.90;;;;;;5005067;28;20045;-74
2023/11/30 04:08:37;;;;;;;18.23;4.05;;;-1.10;99.90;;;;;;5011540;28;20041;-75
2023/11/30 04:11:03;;;;;;;12.90;4.20;;;-1.20;99.90;;;;;;5022726;28;20403;-74
2023/11/30 04:13:29;;;;;;;7.38;4.05;;;-1.30;99.90;;;;;;4998664;28;20029;-74
2023/11/30 04:15:55;;;;;;;11.77;4.10;;;-1.30;99.90;;;;;;5003496;28;20049;-74
2023/11/30 04:18:21;;;;;;;10.70;4.10;;;-1.30;99.90;;;;;;5012426;28;20068;-74
2023/11/30 04:20:50;;;;;;;27.63;4.82;;;-1.20;99.90;;;;;;4993947;28;20690;-74
2023/11/30 04:23:15;;;;;;;20.95;4.70;;;-1.30;99.90;;;;;;4998862;28;20061;-75
2023/11/30 04:25:41;;;;;;;16.48;4.68;;;-1.30;99.90;;;;;;5025921;28;20625;-74
2023/11/30 04:28:07;;;;;;;36.92;6.50;;;-1.40;99.90;;;;;;5025852;28;20041;-75
2023/11/30 04:30:35;;;;;;;49.90;5.75;;;-1.40;99.90;;;;;;5009848;28;20041;-74
2023/11/30 04:33:00;;;;;;;22.85;5.38;;;-1.50;99.90;;;;;;5009221;28;20124;-74
2023/11/30 04:35:26;;;;;;;20.27;5.00;;;-1.50;99.90;;;;;;5023058;28;20565;-74
2023/11/30 04:37:52;;;;;;;20.85;3.92;;;-1.60;99.90;;;;;;5010785;28;20045;-74
2023/11/30 04:40:18;;;;;;;27.45;4.38;;;-1.60;99.90;;;;;;5018311;28;20077;-74
2023/11/30 04:42:44;;;;;;;25.20;3.85;;;-1.60;99.90;;;;;;4989310;28;20045;-75
2023/11/30 04:45:10;;;;;;;22.95;3.58;;;-1.50;99.90;;;;;;5010491;28;20111;-75
2023/11/30 04:47:35;;;;;;;6.95;3.97;;;-1.50;99.90;;;;;;4992431;28;20655;-74
2023/11/30 04:50:01;;;;;;;14.45;3.80;;;-1.60;99.90;;;;;;5031331;28;20053;-74
2023/11/30 04:52:27;;;;;;;18.95;3.22;;;-1.60;99.90;;;;;;5028647;28;20516;-74
2023/11/30 04:54:52;;;;;;;14.98;3.45;;;-1.50;99.90;;;;;;5013157;28;20167;-74
2023/11/30 04:57:18;;;;;;;16.00;3.42;;;-1.50;99.90;;;;;;5003825;28;20419;-74
2023/11/30 04:59:45;;;;;;;4.88;2.92;;;-1.60;99.90;;;;;;5006234;28;20053;-75
2023/11/30 05:02:10;;;;;;;4.28;3.33;;;-1.70;99.90;;;;;;5006070;28;20053;-74
2023/11/30 05:04:37;;;;;;;14.35;2.83;;;-1.60;99.90;;;;;;5004689;28;20045;-74
2023/11/30 05:07:03;;;;;;;6.55;2.95;;;-1.70;99.90;;;;;;4992587;28;20057;-74
2023/11/30 05:09:28;;;;;;;9.30;2.72;;;-1.70;99.90;;;;;;5020153;28;20488;-75
2023/11/30 05:11:54;;;;;;;12.35;3.05;;;-1.70;99.90;;;;;;5014929;28;20047;-74
2023/11/30 05:14:23;;;;;;;9.23;3.38;;;-1.70;99.90;;;;;;5012318;28;20049;-74
2023/11/30 05:16:48;;;;;;;8.70;2.85;;;-1.70;99.90;;;;;;5015354;28;20115;-74
2023/11/30 05:19:14;;;;;;;5.30;2.58;;;-1.70;99.90;;;;;;5008808;28;20181;-75
2023/11/30 05:21:40;;;;;;;16.00;3.13;;;-1.80;99.90;;;;;;5027885;28;20412;-74
2023/11/30 05:24:06;;;;;;;24.20;2.97;;;-1.60;99.90;;;;;;5010790;28;20041;-74
2023/11/30 05:26:31;;;;;;;10.50;2.58;;;-1.90;99.90;;;;;;5009368;28;20472;-73
2023/11/30 05:28:57;;;;;;;13.15;2.83;;;-1.80;99.90;;;;;;5024094;28;20037;-74
2023/11/30 05:31:23;;;;;;;26.55;2.92;;;-1.80;99.90;;;;;;5032712;28;20407;-74
2023/11/30 05:33:48;;;;;;;6.30;2.40;;;-1.70;99.90;;;;;;5013630;28;20091;-74
2023/11/30 05:36:17;;;;;;;3.60;2.78;;;-1.80;99.90;;;;;;5009448;28;20053;-74
2023/11/30 05:38:43;;;;;;;7.97;2.50;;;-1.80;99.90;;;;;;4988622;28;20044;-74
2023/11/30 05:41:09;;;;;;;3.55;2.65;;;-1.80;99.90;;;;;;5016030;28;20041;-74
2023/11/30 05:43:35;;;;;;;9.40;3.28;;;-1.70;99.90;;;;;;5005332;28;20522;-74
2023/11/30 05:46:01;;;;;;;8.55;2.58;;;-1.60;99.90;;;;;;5016056;28;20477;-74
2023/11/30 05:48:27;;;;;;;8.48;3.60;;;-1.60;99.90;;;;;;5005287;28;20087;-73
2023/11/30 05:50:52;;;;;;;9.30;4.10;;;-1.70;99.90;;;;;;5023996;28;20052;-74
2023/11/30 05:53:18;;;;;;;9.00;3.70;;;-1.70;99.90;;;;;;5028882;28;20056;-75
2023/11/30 05:55:44;;;;;;;6.05;3.33;;;-1.70;99.90;;;;;;5012387;28;20060;-75
2023/11/30 05:58:09;;;;;;;4.75;3.40;;;-1.70;99.90;;;;;;5004726;28;20132;-75
2023/11/30 06:00:35;;;;;;;8.82;3.47;;;-1.70;99.90;;;;;;5012040;28;20119;-75
2023/11/30 06:03:01;;;;;;;9.32;3.33;;;-1.80;99.90;;;;;;5011469;28;20053;-74
2023/11/30 06:05:27;;;;;;;4.28;3.33;;;-1.80;99.90;;;;;;5007105;28;20053;-75
2023/11/30 06:07:52;;;;;;;4.45;3.20;;;-1.70;99.90;;;;;;4991048;28;20045;-74
2023/11/30 06:10:18;;;;;;;3.95;2.85;;;-1.80;99.90;;;;;;5007494;28;20766;-74
2023/11/30 06:12:44;;;;;;;4.70;2.97;;;-1.80;99.90;;;;;;5000710;28;20040;-74
2023/11/30 06:15:10;;;;;;;3.20;2.63;;;-1.90;99.90;;;;;;5021527;28;20048;-75
2023/11/30 06:17:36;;;;;;;16.70;3.47;;;-1.80;99.90;;;;;;5009097;28;20040;-75
2023/11/30 06:20:03;;;;;;;6.03;2.78;;;-1.80;99.90;;;;;;5009902;28;20608;-74
2023/11/30 06:22:28;;;;;;;5.85;3.10;;;-1.90;99.90;;;;;;5009590;28;20369;-75
2023/11/30 06:24:54;;;;;;;5.43;3.25;;;-1.80;99.90;;;;;;5010579;28;20052;-74
2023/11/30 06:27:20;;;;;;;4.93;3.50;;;-1.90;99.90;;;;;;5012994;28;20041;-74
2023/11/30 06:29:45;;;;;;;6.45;3.35;;;-1.80;99.90;;;;;;5008990;28;20048;-75
2023/11/30 06:32:12;;;;;;;6.22;3.15;;;-2.00;99.90;;;;;;4990243;28;20037;-74
2023/11/30 06:34:38;;;;;;;6.10;4.35;;;-1.90;99.90;;;;;;5009987;28;20038;-74
2023/11/30 06:37:04;;;;;;;4.47;3.35;;;-1.90;99.90;;;;;;5012233;28;20041;-74
2023/11/30 06:39:29;;;;;;;3.83;2.70;;;-1.80;99.90;;;;;;5010468;28;20084;-74
2023/11/30 06:41:58;;;;;;;3.43;2.57;;;-1.90;99.90;;;;;;5010102;28;20041;-74
2023/11/30 06:44:23;;;;;;;8.45;3.08;;;-1.80;99.90;;;;;;5011781;28;20346;-74
2023/11/30 06:46:49;;;;;;;16.40;2.55;;;-1.90;99.90;;;;;;5008826;28;20044;-73
2023/11/30 06:49:15;;;;;;;6.85;2.95;;;-1.90;99.90;;;;;;5012868;28;20036;-74
2023/11/30 06:51:41;;;;;;;10.98;3.45;;;-1.90;99.90;;;;;;5009209;28;20045;-74
2023/11/30 06:54:12;;;;;;;5.68;2.80;;;-1.80;99.90;;;;;;5016922;28;20408;-75
2023/11/30 06:56:44;;;;;;;14.77;3.50;;;-1.90;99.90;;;;;;4985625;28;20041;-74
2023/11/30 06:59:10;;;;;;;9.45;3.30;;;-2.00;99.90;;;;;;5003868;28;20127;-73
2023/11/30 07:01:36;;;;;;;20.63;3.90;;;-1.90;99.90;;;;;;4989323;28;20392;-74
2023/11/30 07:04:02;;;;;;;28.60;3.45;;;-2.00;99.90;;;;;;5014947;28;20081;-75
2023/11/30 07:06:30;;;;;;;13.35;3.42;;;-2.10;99.90;;;;;;4992122;28;20041;-74
2023/11/30 07:08:56;;;;;;;18.15;4.00;;;-2.10;99.90;;;;;;5008428;28;20087;-74
2023/11/30 07:11:21;;;;;;;7.15;3.10;;;-2.10;99.90;;;;;;5020599;28;20140;-74
2023/11/30 07:13:47;;;;;;;18.75;3.40;;;-2.10;99.90;;;;;;5009444;28;20701;-74
2023/11/30 07:16:13;;;;;;;13.10;3.58;;;-2.10;99.90;;;;;;5008079;28;20091;-74
2023/11/30 07:18:39;;;;;;;10.05;2.92;;;-2.10;99.90;;;;;;5006978;28;20733;-75
2023/11/30 07:21:05;;;;;;;7.65;3.00;;;-2.00;99.90;;;;;;5004122;28;20049;-75
2023/11/30 07:23:32;;;;;;;4.82;3.17;;;-1.90;99.90;;;;;;4999043;28;21008;-78
2023/11/30 07:25:58;;;;;;;12.60;2.85;;;-1.90;99.90;;;;;;4997521;28;20045;-75
2023/11/30 07:28:26;;;;;;;9.60;2.83;;;-2.00;99.90;;;;;;5006765;28;20044;-75
2023/11/30 07:30:51;;;;;;;19.13;3.15;;;-1.90;99.90;;;;;;4998891;28;20637;-76
2023/11/30 07:33:17;;;;;;;18.92;4.50;;;-1.90;99.90;;;;;;4988167;28;20033;-74
2023/11/30 07:35:43;;;;;;;12.40;4.15;;;-2.00;99.90;;;;;;5002254;28;20038;-77
2023/11/30 07:38:09;;;;;;;21.33;3.92;;;-1.90;99.90;;;;;;4993286;28;20429;-76
2023/11/30 07:40:35;;;;;;;29.55;3.92;;;-1.50;99.90;;;;;;5013164;28;20056;-76
2023/11/30 07:43:00;;;;;;;44.00;3.75;;;-1.80;99.90;;;;;;5011897;28;20053;-76
2023/11/30 07:45:31;;;;;;;14.13;3.35;;;-1.80;99.90;;;;;;5027379;28;20037;-76
2023/11/30 07:47:59;;;;;;;24.83;4.93;;;-1.90;99.90;;;;;;5013846;28;20082;-76
2023/11/30 07:50:27;;;;;;;7.17;3.50;;;-1.60;99.90;;;;;;5012301;28;20060;-77
2023/11/30 07:52:52;;;;;;;83.43;5.95;;;-1.70;99.90;;;;;;5026208;28;20296;-76
2023/11/30 07:55:18;;;;;;;8.05;4.88;;;-1.90;99.90;;;;;;5017517;28;20033;-76
2023/11/30 07:57:44;;;;;;;43.65;4.97;;;-1.80;99.90;;;;;;5016086;28;20114;-75
2023/11/30 08:00:11;;;;;;;20.73;3.60;;;-1.70;99.90;;;;;;5006447;28;20064;-76
2023/11/30 08:02:37;;;;;;;9.50;3.38;;;-1.80;99.90;;;;;;5016281;28;20106;-76
2023/11/30 08:05:05;;;;;;;35.33;4.32;;;-1.70;99.90;;;;;;4999207;28;20110;-76
2023/11/30 08:07:32;;;;;;;3.53;2.80;;;-1.70;99.90;;;;;;5018332;28;20045;-76
2023/11/30 08:10:01;;;;;;;10.73;2.80;;;-1.70;99.90;;;;;;5016796;28;20052;-76
2023/11/30 08:12:26;;;;;;;17.40;2.83;;;-1.60;99.90;;;;;;5002521;28;20041;-76
2023/11/30 08:14:52;;;;;;;44.20;3.75;;;-1.60;99.90;;;;;;5016758;28;20041;-76
2023/11/30 08:17:19;;;;;;;19.38;3.05;;;-1.70;99.90;;;;;;5016602;28;20686;-76
2023/11/30 08:19:45;;;;;;;11.73;3.08;;;-1.60;99.90;;;;;;5000939;28;20037;-76
2023/11/30 08:22:10;;;;;;;3.88;2.58;;;-1.50;99.90;;;;;;5018353;28;20069;-76
2023/11/30 08:24:38;;;;;;;21.15;3.25;;;-1.50;99.90;;;;;;5016694;28;20044;-76
2023/11/30 08:27:05;;;;;;;13.10;2.72;;;-1.40;99.90;;;;;;5015562;28;20614;-76
2023/11/30 08:29:32;;;;;;;21.95;3.05;;;-1.40;99.90;;;;;;5014412;28;20041;-76
2023/11/30 08:31:58;;;;;;;8.80;3.35;;;-1.30;99.90;;;;;;5015434;28;20076;-76
2023/11/30 08:34:24;;;;;;;8.25;3.13;;;-1.40;99.90;;;;;;5015924;28;20064;-77
2023/11/30 08:36:50;;;;;;;11.60;3.15;;;-1.20;99.90;;;;;;5025894;28;20041;-76
2023/11/30 08:39:23;;;;;;;8.98;3.47;;;-1.20;99.90;;;;;;5016474;28;20045;-76
2023/11/30 08:41:53;;;;;;;7.10;3.63;;;-1.20;99.90;;;;;;5015342;28;20042;-76
2023/11/30 08:44:25;;;;;;;13.57;3.53;;;-1.00;99.90;;;;;;5016085;28;20584;-76
2023/11/30 08:46:52;;;;;;;14.63;3.13;;;-1.00;99.90;;;;;;5026423;28;20047;-76
2023/11/30 08:49:18;;;;;;;7.45;3.30;;;-1.10;99.90;;;;;;5026399;28;20037;-76
2023/11/30 08:51:43;;;;;;;16.33;3.85;;;-1.10;99.90;;;;;;5025231;28;20040;-76
2023/11/30 08:54:09;;;;;;;9.02;3.90;;;-1.00;99.90;;;;;;5017355;28;20487;-76
2023/11/30 08:56:35;;;;;;;10.30;3.78;;;-0.90;99.90;;;;;;5015597;28;20037;-76
2023/11/30 08:59:01;;;;;;;12.60;3.67;;;-0.90;99.90;;;;;;5016674;28;20053;-76
2023/11/30 09:01:27;;;;;;;9.75;4.30;;;-0.80;99.90;;;;;;5025196;28;20139;-76
2023/11/30 09:03:53;;;;;;;7.78;4.07;;;-0.70;99.90;;;;;;5024836;28;20036;-76
2023/11/30 09:06:19;;;;;;;12.52;3.72;;;-0.70;99.90;;;;;;5014508;28;20045;-76
2023/11/30 09:08:44;;;;;;;17.75;4.35;;;-0.60;99.90;;;;;;5013885;28;20571;-76
2023/11/30 09:11:10;;;;;;;18.35;4.75;;;-0.60;99.90;;;;;;4997474;28;20065;-75
2023/11/30 09:13:36;;;;;;;10.75;4.05;;;-0.50;99.90;;;;;;5014541;28;20107;-77
2023/11/30 09:16:02;;;;;;;9.48;4.25;;;-0.40;99.90;;;;;;5014088;28;20049;-77
2023/11/30 09:18:28;;;;;;;16.17;4.75;;;-0.30;99.90;;;;;;4997501;28;20037;-76
2023/11/30 09:20:54;;;;;;;13.18;4.68;;;-0.20;99.90;;;;;;5014649;28;20442;-76
2023/11/30 09:23:20;;;;;;;17.33;5.53;;;-0.10;99.90;;;;;;5014524;28;20535;-76
2023/11/30 09:25:45;;;;;;;34.78;6.07;;;-0.10;99.90;;;;;;5016650;28;20073;-76
2023/11/30 09:28:11;;;;;;;33.83;5.18;;;-0.10;99.90;;;;;;5016264;28;20144;-75
2023/11/30 09:30:37;;;;;;;22.30;5.63;;;0.00;99.90;;;;;;5000079;28;20744;-76
2023/11/30 09:33:04;;;;;;;37.53;6.13;;;-0.10;99.90;;;;;;5012912;28;20052;-76
2023/11/30 09:35:30;;;;;;;101.30;8.93;;;-0.10;99.90;;;;;;5030464;28;20085;-76
2023/11/30 09:37:55;;;;;;;26.40;5.32;;;0.00;99.90;;;;;;5016701;28;20065;-76
2023/11/30 09:40:21;;;;;;;27.90;5.28;;;0.10;99.90;;;;;;5011598;28;20049;-76
2023/11/30 09:42:47;;;;;;;14.07;5.53;;;0.20;99.90;;;;;;5023870;28;20041;-76
2023/11/30 09:45:14;;;;;;;21.83;5.30;;;0.30;99.90;;;;;;5012741;28;20041;-76
2023/11/30 09:47:40;;;;;;;15.13;4.93;;;0.30;99.90;;;;;;5003508;28;20049;-75
2023/11/30 09:50:06;;;;;;;20.80;5.60;;;0.30;99.90;;;;;;5013079;28;20411;-76
2023/11/30 09:52:32;;;;;;;26.10;6.40;;;0.40;99.90;;;;;;5014911;28;20034;-76
2023/11/30 09:54:59;;;;;;;10.25;5.65;;;0.30;99.90;;;;;;5013898;28;20107;-76
2023/11/30 09:57:24;;;;;;;19.95;6.50;;;0.40;99.90;;;;;;4999072;28;20114;-77
2023/11/30 09:59:50;;;;;;;11.43;5.10;;;0.40;99.90;;;;;;5014152;28;20041;-76
2023/11/30 10:02:17;;;;;;;23.02;5.25;;;0.60;99.90;;;;;;4994251;28;20045;-74
2023/11/30 10:04:44;;;;;;;18.83;5.57;;;0.60;99.90;;;;;;5015181;28;20451;-76
2023/11/30 10:07:10;;;;;;;14.82;5.15;;;0.60;99.90;;;;;;5016121;28;20049;-77
2023/11/30 10:09:37;;;;;;;26.55;5.75;;;0.70;99.90;;;;;;5018188;28;20053;-78
2023/11/30 10:12:04;;;;;;;12.48;5.15;;;0.70;99.90;;;;;;5013234;28;20049;-76
2023/11/30 10:14:29;;;;;;;12.52;5.78;;;0.80;99.90;;;;;;5011320;28;20045;-78
2023/11/30 10:16:55;;;;;;;17.90;5.95;;;0.80;99.90;;;;;;5004065;28;20614;-77
2023/11/30 10:19:21;;;;;;;25.50;6.53;;;0.80;99.90;;;;;;5016138;28;20037;-81
2023/11/30 10:21:47;;;;;;;25.73;6.53;;;0.80;99.90;;;;;;5008149;28;20759;-77
2023/11/30 10:24:13;;;;;;;13.73;7.18;;;0.90;99.90;;;;;;5013961;28;20601;-77
2023/11/30 10:26:43;;;;;;;14.50;6.38;;;1.00;99.90;;;;;;5011994;28;20045;-76
2023/11/30 10:29:12;;;;;;;25.58;7.70;;;1.10;99.90;;;;;;5002302;28;20041;-77
2023/11/30 10:31:39;;;;;;;;;;;1.10;99.90;;;;;;5013911;28;20037;-76
2023/11/30 10:34:10;;;;;;;17.08;7.28;;;1.10;99.90;;;;;;5016628;28;19971;-76
2023/11/30 10:36:38;;;;;;;12.32;7.20;;;1.20;99.90;;;;;;5011789;28;20040;-76
2023/11/30 10:39:18;;;;;;;13.50;7.43;;;1.60;99.90;;;;;;5008847;28;20037;-77
2023/11/30 10:41:52;;;;;;;20.15;7.13;;;1.10;99.90;;;;;;5012164;28;20152;-76
2023/11/30 10:44:31;;;;;;;22.83;6.95;;;1.00;99.90;;;;;;5011178;28;20056;-75
2023/11/30 10:47:01;;;;;;;9.52;6.75;;;1.10;99.90;;;;;;5013268;28;20120;-76
2023/11/30 10:49:27;;;;;;;25.73;7.82;;;1.10;99.90;;;;;;5009877;28;20126;-76
2023/11/30 10:51:57;;;;;;;11.65;7.38;;;1.00;99.90;;;;;;5011403;28;20443;-76
2023/11/30 10:54:38;;;;;;;9.80;6.65;;;1.00;99.90;;;;;;5010483;28;20052;-75
2023/11/30 10:57:05;;;;;;;11.88;6.28;;;0.90;99.90;;;;;;4998500;28;20048;-76
2023/11/30 10:59:31;;;;;;;18.15;7.53;;;1.00;99.90;;;;;;5013786;28;20052;-76
2023/11/30 11:01:58;;;;;;;10.02;7.07;;;1.10;99.90;;;;;;4985376;28;20045;-76
2023/11/30 11:04:26;;;;;;;13.38;6.97;;;1.10;99.90;;;;;;4997520;28;20041;-76
2023/11/30 11:07:12;;;;;;;15.50;7.40;;;1.20;99.90;;;;;;4994175;28;20122;-76
2023/11/30 11:09:43;;;;;;;11.27;7.15;;;1.20;99.90;;;;;;4999030;28;20049;-76
2023/11/30 11:12:25;;;;;;;11.80;7.05;;;1.20;99.90;;;;;;4995723;28;20045;-76
2023/11/30 11:15:08;;;;;;;12.48;7.68;;;1.20;99.90;;;;;;5017474;28;20133;-77
2023/11/30 11:17:47;;;;;;;11.23;7.30;;;1.20;99.90;;;;;;4998704;28;20045;-76
2023/11/30 11:20:27;;;;;;;13.40;7.90;;;1.30;99.90;;;;;;4995812;28;20045;-76
2023/11/30 11:22:57;;;;;;;16.48;8.30;;;1.40;99.90;;;;;;4998791;28;20045;-76
2023/11/30 11:25:24;;;;;;;16.42;8.52;;;1.60;99.90;;;;;;5000221;28;20052;-76
2023/11/30 11:27:51;;;;;;;11.05;7.18;;;1.50;99.90;;;;;;4992743;28;20163;-76
2023/11/30 11:30:17;;;;;;;15.88;7.90;;;1.40;99.90;;;;;;5001660;28;20684;-76
2023/11/30 11:32:44;;;;;;;10.32;7.20;;;1.40;99.90;;;;;;5000808;28;20049;-76
2023/11/30 11:35:10;;;;;;;14.18;7.80;;;1.40;99.90;;;;;;4980608;28;20492;-76
2023/11/30 11:37:37;;;;;;;12.40;7.78;;;1.40;99.90;;;;;;4997664;28;20036;-77
2023/11/30 11:40:03;;;;;;;21.15;6.78;;;1.40;99.90;;;;;;5000857;28;20117;-76
2023/11/30 11:42:29;;;;;;;14.63;8.15;;;1.30;99.90;;;;;;4983899;28;20800;-76
2023/11/30 11:44:55;;;;;;;15.73;7.50;;;1.40;99.90;;;;;;5003339;28;20046;-77
2023/11/30 11:47:22;;;;;;;12.65;7.45;;;1.40;99.90;;;;;;4989234;28;20037;-77
2023/11/30 11:49:47;;;;;;;14.68;8.35;;;1.30;99.90;;;;;;5008896;28;20104;-76
2023/11/30 11:52:20;;;;;;;14.15;7.72;;;1.40;99.90;;;;;;5001134;28;20144;-76
2023/11/30 11:55:04;;;;;;;11.73;7.78;;;1.40;99.90;;;;;;5007685;28;20067;-76
2023/11/30 11:57:43;;;;;;;11.98;7.68;;;1.40;99.90;;;;;;5007405;28;20053;-75
2023/11/30 12:00:16;;;;;;;12.90;8.05;;;1.50;99.90;;;;;;5008945;28;20141;-76
2023/11/30 12:02:42;;;;;;;12.68;8.10;;;1.50;99.90;;;;;;5012770;28;20046;-76
2023/11/30 12:05:14;;;;;;;11.68;7.60;;;1.50;99.90;;;;;;5010297;28;20080;-76
2023/11/30 12:07:57;;;;;;;15.15;8.77;;;1.60;99.90;;;;;;5009922;28;20053;-75
2023/11/30 12:10:27;;;;;;;18.05;8.80;;;1.70;99.90;;;;;;5016348;28;20049;-76
2023/11/30 12:12:53;;;;;;;14.13;8.73;;;1.60;99.90;;;;;;5022583;28;20033;-76
2023/11/30 12:15:19;;;;;;;14.68;8.38;;;1.70;99.90;;;;;;4992406;28;20033;-76
2023/11/30 12:17:45;;;;;;;14.55;8.70;;;1.70;99.90;;;;;;5007934;28;20079;-76
2023/11/30 12:20:11;;;;;;;17.55;8.80;;;1.60;99.90;;;;;;4977593;28;20052;-75
2023/11/30 12:22:36;;;;;;;13.48;8.60;;;1.60;99.90;;;;;;5018844;28;20049;-75
2023/11/30 12:25:03;;;;;;;16.25;9.00;;;1.60;99.90;;;;;;5010624;28;20041;-75
2023/11/30 12:27:29;;;;;;;10.52;6.88;;;1.60;99.90;;;;;;5022737;28;20033;-76
2023/11/30 12:29:55;;;;;;;14.50;8.27;;;1.60;99.90;;;;;;4996742;28;20471;-76
2023/11/30 12:32:21;;;;;;;13.00;8.40;;;1.70;99.90;;;;;;5011009;28;20695;-76
2023/11/30 12:34:46;;;;;;;13.10;8.25;;;1.60;99.90;;;;;;4996799;28;20045;-76
2023/11/30 12:37:12;;;;;;;12.20;8.35;;;1.70;99.90;;;;;;5012280;28;20037;-76
2023/11/30 12:39:38;;;;;;;13.15;7.57;;;1.70;99.90;;;;;;5003218;28;20504;-76